Wenatchee, WA

1:26 AM PDT on August 21, 2014 (GMT -0700)
Stampede Pass | Change Station
CLOSE
Current Station
Airport
Location: Stampede Pass,
Elevation: 3967 ft
Nearby Weather Stations
Active Advisory: Flash Flood Watch

Elev 3967 ft 47.28 °N, 121.34 °W | Updated 5 hours ago

Partly Cloudy
Partly Cloudy
51 °F
Feels Like 51 °F
N
7
Wind Variable Wind from Variable

Today
High -- | Low -- °F
--% Chance of Precip.
Yesterday
High -- | Low -- °F
Precip. -- in
6:05 AM 8:02 PM
Waning Crescent, 16% visible
Pressure 30.02 in
Visibility 8.0 miles
Clouds Few 1000 ft
Dew Point 47 °F
Humidity 86%
Rainfall 0.00 in
Snow Depth Not available.
UV 0 out of 12
Pollen 4.20 out of 12
Air Quality Not available.
Flu Activity Not available.
METAR KSMP 210256Z AUTO VRB06KT 8SM FEW010 11/08 A3003 RMK AO2 SLP166 T01060083 51004

More Conditions Fewer Conditions

Pressure 30.02 in
Visibility 8.0 miles
Clouds Few 1000 ft
Dew Point 47 °F
Humidity 86%
Rainfall 0.00 in
Snow Depth Not available.
UV 0 out of 12
Pollen 4.20 out of 12
Air Quality Not available.
Flu Activity Not available.
METAR KSMP 210256Z AUTO VRB06KT 8SM FEW010 11/08 A3003 RMK AO2 SLP166 T01060083 51004

More Conditions Fewer Conditions

10-Day Weather Forecast

Almanac

Astronomy

Aug. 21, 2014 Rise Set
Actual Time 6:05 AM PDT 8:02 PM PDT
Civil Twilight 5:32 AM PDT 8:35 PM PDT
Nautical Twilight 4:51 AM PDT 9:15 PM PDT
Astronomical Twilight 4:06 AM PDT 10:00 PM PDT
Moon 2:33 AM PDT 5:40 PM PDT
Length of Visible Light 15h 02m
Length of Day
13h 56m
Tomorrow will be 3m 10s shorter.
Waning Crescent, 16% of the Moon is Illuminated
Today
Waning Crescent
Aug 25
New
Sep 2
First Quarter
Sep 8
Full
Sep 15
Last Quarter

Today's Extremes

State Highs State Lows

Community

WunderPhotos

Upload Photos

1,745,867 photos uploaded!

Nearby

Snow Depth

Station Depth Elevation
Grouse Camp 0 in 5380 ft
Trough 1 in 5300 ft
Blewett Pass 0 in 4270 ft
Sasse Ridge 0 in 4200 ft
Stevens Pass 0 in 4070 ft

Earthquake Activity

City Distance Mag. Time & Date
No recent earthquake activity has been reported nearby.
Minimum magnitude displayed is 2.5.

Coastal Water Temperatures

Place Temperature
No Stations Reporting

Nearby Weather Stations